sensor_id;sensor_type;location;lat;lon;timestamp;P1;durP1;ratioP1;P2;durP2;ratioP2
76256;SDS011;65074;50.436;8.672;2022-12-16T00:01:20;18.10;;;7.50;;
76256;SDS011;65074;50.436;8.672;2022-12-16T00:03:50;18.15;;;7.25;;
76256;SDS011;65074;50.436;8.672;2022-12-16T00:06:17;17.17;;;6.82;;
76256;SDS011;65074;50.436;8.672;2022-12-16T00:08:43;16.23;;;6.97;;
76256;SDS011;65074;50.436;8.672;2022-12-16T00:11:09;20.27;;;9.00;;
76256;SDS011;65074;50.436;8.672;2022-12-16T00:13:35;17.58;;;8.95;;
76256;SDS011;65074;50.436;8.672;2022-12-16T00:16:03;20.83;;;8.95;;
76256;SDS011;65074;50.436;8.672;2022-12-16T00:18:30;15.18;;;8.07;;
76256;SDS011;65074;50.436;8.672;2022-12-16T00:20:55;12.02;;;5.68;;
76256;SDS011;65074;50.436;8.672;2022-12-16T00:23:21;23.10;;;10.52;;
76256;SDS011;65074;50.436;8.672;2022-12-16T00:25:46;22.70;;;9.57;;
76256;SDS011;65074;50.436;8.672;2022-12-16T00:28:13;17.80;;;8.88;;
76256;SDS011;65074;50.436;8.672;2022-12-16T00:30:40;23.15;;;10.68;;
76256;SDS011;65074;50.436;8.672;2022-12-16T00:33:06;20.13;;;10.32;;
76256;SDS011;65074;50.436;8.672;2022-12-16T00:35:31;23.08;;;11.27;;
76256;SDS011;65074;50.436;8.672;2022-12-16T00:37:57;10.85;;;5.50;;
76256;SDS011;65074;50.436;8.672;2022-12-16T00:40:22;19.23;;;8.15;;
76256;SDS011;65074;50.436;8.672;2022-12-16T00:42:48;14.23;;;6.57;;
76256;SDS011;65074;50.436;8.672;2022-12-16T00:45:13;13.65;;;6.22;;
76256;SDS011;65074;50.436;8.672;2022-12-16T00:47:39;25.10;;;10.18;;
76256;SDS011;65074;50.436;8.672;2022-12-16T00:50:04;22.35;;;10.68;;
76256;SDS011;65074;50.436;8.672;2022-12-16T00:52:30;14.52;;;6.70;;
76256;SDS011;65074;50.436;8.672;2022-12-16T00:54:55;14.85;;;7.75;;
76256;SDS011;65074;50.436;8.672;2022-12-16T00:57:21;19.80;;;8.43;;
76256;SDS011;65074;50.436;8.672;2022-12-16T00:59:46;23.13;;;8.00;;
76256;SDS011;65074;50.436;8.672;2022-12-16T01:02:12;18.75;;;8.23;;
76256;SDS011;65074;50.436;8.672;2022-12-16T01:04:37;17.33;;;7.63;;
76256;SDS011;65074;50.436;8.672;2022-12-16T01:07:02;19.47;;;8.77;;
76256;SDS011;65074;50.436;8.672;2022-12-16T01:09:28;20.17;;;9.95;;
76256;SDS011;65074;50.436;8.672;2022-12-16T01:11:53;24.33;;;10.87;;
76256;SDS011;65074;50.436;8.672;2022-12-16T01:14:18;20.77;;;10.48;;
76256;SDS011;65074;50.436;8.672;2022-12-16T01:16:44;17.50;;;7.63;;
76256;SDS011;65074;50.436;8.672;2022-12-16T01:19:09;12.85;;;5.20;;
76256;SDS011;65074;50.436;8.672;2022-12-16T01:21:35;21.02;;;10.25;;
76256;SDS011;65074;50.436;8.672;2022-12-16T01:24:01;14.43;;;6.95;;
76256;SDS011;65074;50.436;8.672;2022-12-16T01:26:26;16.38;;;7.13;;
76256;SDS011;65074;50.436;8.672;2022-12-16T01:28:51;10.10;;;4.03;;
76256;SDS011;65074;50.436;8.672;2022-12-16T01:31:17;9.93;;;4.63;;
76256;SDS011;65074;50.436;8.672;2022-12-16T01:33:44;15.82;;;7.93;;
76256;SDS011;65074;50.436;8.672;2022-12-16T01:36:10;10.85;;;4.43;;
76256;SDS011;65074;50.436;8.672;2022-12-16T01:38:35;17.63;;;7.15;;
76256;SDS011;65074;50.436;8.672;2022-12-16T01:41:01;18.95;;;9.20;;
76256;SDS011;65074;50.436;8.672;2022-12-16T01:43:30;13.77;;;7.15;;
76256;SDS011;65074;50.436;8.672;2022-12-16T01:48:34;17.60;;;8.10;;
76256;SDS011;65074;50.436;8.672;2022-12-16T01:51:06;20.00;;;7.70;;
76256;SDS011;65074;50.436;8.672;2022-12-16T01:53:35;17.48;;;6.95;;
76256;SDS011;65074;50.436;8.672;2022-12-16T01:56:06;11.93;;;5.97;;
76256;SDS011;65074;50.436;8.672;2022-12-16T01:58:32;15.18;;;6.75;;
76256;SDS011;65074;50.436;8.672;2022-12-16T02:01:00;13.32;;;6.55;;
76256;SDS011;65074;50.436;8.672;2022-12-16T02:03:28;13.65;;;6.43;;
76256;SDS011;65074;50.436;8.672;2022-12-16T02:05:56;11.25;;;5.90;;
76256;SDS011;65074;50.436;8.672;2022-12-16T02:08:23;15.80;;;7.18;;
76256;SDS011;65074;50.436;8.672;2022-12-16T02:10:53;18.50;;;8.77;;
76256;SDS011;65074;50.436;8.672;2022-12-16T02:16:24;17.52;;;7.80;;
76256;SDS011;65074;50.436;8.672;2022-12-16T02:21:46;17.60;;;7.78;;
76256;SDS011;65074;50.436;8.672;2022-12-16T02:29:55;21.58;;;9.05;;
76256;SDS011;65074;50.436;8.672;2022-12-16T02:32:33;14.80;;;6.50;;
76256;SDS011;65074;50.436;8.672;2022-12-16T02:35:16;13.23;;;7.28;;
76256;SDS011;65074;50.436;8.672;2022-12-16T02:40:49;9.52;;;5.15;;
76256;SDS011;65074;50.436;8.672;2022-12-16T02:43:24;14.70;;;7.43;;
76256;SDS011;65074;50.436;8.672;2022-12-16T02:46:14;12.00;;;6.50;;
76256;SDS011;65074;50.436;8.672;2022-12-16T02:48:41;15.32;;;4.85;;
76256;SDS011;65074;50.436;8.672;2022-12-16T02:51:06;6.20;;;3.23;;
76256;SDS011;65074;50.436;8.672;2022-12-16T02:53:33;13.77;;;6.05;;
76256;SDS011;65074;50.436;8.672;2022-12-16T02:56:17;16.10;;;8.43;;
76256;SDS011;65074;50.436;8.672;2022-12-16T03:02:01;14.98;;;6.53;;
76256;SDS011;65074;50.436;8.672;2022-12-16T03:04:41;12.30;;;6.97;;
76256;SDS011;65074;50.436;8.672;2022-12-16T03:07:19;9.13;;;4.25;;
76256;SDS011;65074;50.436;8.672;2022-12-16T03:09:48;13.98;;;7.20;;
76256;SDS011;65074;50.436;8.672;2022-12-16T03:12:15;10.45;;;5.68;;
76256;SDS011;65074;50.436;8.672;2022-12-16T03:14:43;11.45;;;5.15;;
76256;SDS011;65074;50.436;8.672;2022-12-16T03:17:12;19.25;;;8.38;;
76256;SDS011;65074;50.436;8.672;2022-12-16T03:19:40;15.20;;;7.60;;
76256;SDS011;65074;50.436;8.672;2022-12-16T03:22:16;16.17;;;6.20;;
76256;SDS011;65074;50.436;8.672;2022-12-16T03:24:44;13.23;;;6.47;;
76256;SDS011;65074;50.436;8.672;2022-12-16T03:27:15;12.35;;;5.07;;
76256;SDS011;65074;50.436;8.672;2022-12-16T03:29:50;12.02;;;6.18;;
76256;SDS011;65074;50.436;8.672;2022-12-16T03:35:04;17.17;;;5.70;;
76256;SDS011;65074;50.436;8.672;2022-12-16T03:37:51;13.55;;;6.32;;
76256;SDS011;65074;50.436;8.672;2022-12-16T03:40:19;17.35;;;7.60;;
76256;SDS011;65074;50.436;8.672;2022-12-16T03:42:46;6.20;;;2.90;;
76256;SDS011;65074;50.436;8.672;2022-12-16T03:45:14;14.48;;;6.57;;
76256;SDS011;65074;50.436;8.672;2022-12-16T03:47:47;10.90;;;5.82;;
76256;SDS011;65074;50.436;8.672;2022-12-16T03:50:14;10.85;;;4.53;;
76256;SDS011;65074;50.436;8.672;2022-12-16T03:52:39;13.13;;;6.53;;
76256;SDS011;65074;50.436;8.672;2022-12-16T03:55:05;13.27;;;5.97;;
76256;SDS011;65074;50.436;8.672;2022-12-16T03:57:30;10.88;;;5.95;;
76256;SDS011;65074;50.436;8.672;2022-12-16T03:59:55;9.53;;;4.53;;
76256;SDS011;65074;50.436;8.672;2022-12-16T04:02:21;9.70;;;3.78;;
76256;SDS011;65074;50.436;8.672;2022-12-16T04:04:46;8.35;;;4.32;;
76256;SDS011;65074;50.436;8.672;2022-12-16T04:07:12;7.75;;;4.28;;
76256;SDS011;65074;50.436;8.672;2022-12-16T04:09:48;10.70;;;4.45;;
76256;SDS011;65074;50.436;8.672;2022-12-16T04:12:15;10.27;;;4.95;;
76256;SDS011;65074;50.436;8.672;2022-12-16T04:15:00;10.27;;;4.07;;
76256;SDS011;65074;50.436;8.672;2022-12-16T04:18:04;9.57;;;5.05;;
76256;SDS011;65074;50.436;8.672;2022-12-16T04:20:51;9.18;;;4.68;;
76256;SDS011;65074;50.436;8.672;2022-12-16T04:23:38;10.00;;;4.85;;
76256;SDS011;65074;50.436;8.672;2022-12-16T04:26:29;10.35;;;5.68;;
76256;SDS011;65074;50.436;8.672;2022-12-16T04:28:54;10.82;;;4.55;;
76256;SDS011;65074;50.436;8.672;2022-12-16T04:31:20;5.63;;;3.67;;
76256;SDS011;65074;50.436;8.672;2022-12-16T04:33:45;10.40;;;3.67;;
76256;SDS011;65074;50.436;8.672;2022-12-16T04:36:29;8.90;;;3.13;;
76256;SDS011;65074;50.436;8.672;2022-12-16T04:39:29;6.20;;;2.35;;
76256;SDS011;65074;50.436;8.672;2022-12-16T04:42:13;11.02;;;2.83;;
76256;SDS011;65074;50.436;8.672;2022-12-16T04:45:01;6.45;;;3.03;;
76256;SDS011;65074;50.436;8.672;2022-12-16T04:48:05;10.32;;;4.00;;
76256;SDS011;65074;50.436;8.672;2022-12-16T04:50:49;13.13;;;4.05;;
76256;SDS011;65074;50.436;8.672;2022-12-16T04:53:33;4.15;;;2.60;;
76256;SDS011;65074;50.436;8.672;2022-12-16T04:56:17;6.90;;;2.80;;
76256;SDS011;65074;50.436;8.672;2022-12-16T04:59:01;9.25;;;3.25;;
76256;SDS011;65074;50.436;8.672;2022-12-16T05:01:45;9.27;;;3.78;;
76256;SDS011;65074;50.436;8.672;2022-12-16T05:04:28;9.27;;;4.03;;
76256;SDS011;65074;50.436;8.672;2022-12-16T05:07:12;8.38;;;2.75;;
76256;SDS011;65074;50.436;8.672;2022-12-16T05:09:56;10.20;;;3.75;;
76256;SDS011;65074;50.436;8.672;2022-12-16T05:12:40;7.07;;;3.38;;
76256;SDS011;65074;50.436;8.672;2022-12-16T05:15:23;6.45;;;3.13;;
76256;SDS011;65074;50.436;8.672;2022-12-16T05:18:08;11.13;;;4.10;;
76256;SDS011;65074;50.436;8.672;2022-12-16T05:20:57;4.88;;;3.00;;
76256;SDS011;65074;50.436;8.672;2022-12-16T05:23:41;10.63;;;4.93;;
76256;SDS011;65074;50.436;8.672;2022-12-16T05:26:25;9.75;;;5.07;;
76256;SDS011;65074;50.436;8.672;2022-12-16T05:29:09;13.38;;;4.78;;
76256;SDS011;65074;50.436;8.672;2022-12-16T05:31:52;7.80;;;2.95;;
76256;SDS011;65074;50.436;8.672;2022-12-16T05:34:36;11.88;;;6.22;;
76256;SDS011;65074;50.436;8.672;2022-12-16T05:37:20;9.27;;;4.88;;
76256;SDS011;65074;50.436;8.672;2022-12-16T05:40:04;10.02;;;4.22;;
76256;SDS011;65074;50.436;8.672;2022-12-16T05:42:48;14.35;;;6.22;;
76256;SDS011;65074;50.436;8.672;2022-12-16T05:45:33;6.88;;;3.47;;
76256;SDS011;65074;50.436;8.672;2022-12-16T05:48:16;7.32;;;2.90;;
76256;SDS011;65074;50.436;8.672;2022-12-16T05:51:00;7.65;;;4.30;;
76256;SDS011;65074;50.436;8.672;2022-12-16T05:53:44;8.85;;;4.53;;
76256;SDS011;65074;50.436;8.672;2022-12-16T05:56:27;10.65;;;4.10;;
76256;SDS011;65074;50.436;8.672;2022-12-16T05:59:11;4.22;;;3.08;;
76256;SDS011;65074;50.436;8.672;2022-12-16T06:01:55;7.82;;;4.15;;
76256;SDS011;65074;50.436;8.672;2022-12-16T06:04:39;8.82;;;3.75;;
76256;SDS011;65074;50.436;8.672;2022-12-16T06:07:22;2.28;;;1.50;;
76256;SDS011;65074;50.436;8.672;2022-12-16T06:10:07;11.93;;;6.15;;
76256;SDS011;65074;50.436;8.672;2022-12-16T06:12:51;6.93;;;2.90;;
76256;SDS011;65074;50.436;8.672;2022-12-16T06:15:35;14.48;;;6.10;;
76256;SDS011;65074;50.436;8.672;2022-12-16T06:18:18;14.85;;;7.35;;
76256;SDS011;65074;50.436;8.672;2022-12-16T06:21:02;9.05;;;4.45;;
76256;SDS011;65074;50.436;8.672;2022-12-16T06:23:46;15.27;;;6.10;;
76256;SDS011;65074;50.436;8.672;2022-12-16T06:26:30;14.73;;;6.90;;
76256;SDS011;65074;50.436;8.672;2022-12-16T06:29:14;6.05;;;2.75;;
76256;SDS011;65074;50.436;8.672;2022-12-16T06:31:57;16.27;;;6.65;;
76256;SDS011;65074;50.436;8.672;2022-12-16T06:34:41;13.52;;;5.22;;
76256;SDS011;65074;50.436;8.672;2022-12-16T06:37:25;15.07;;;5.07;;
76256;SDS011;65074;50.436;8.672;2022-12-16T06:40:09;7.72;;;3.97;;
76256;SDS011;65074;50.436;8.672;2022-12-16T06:42:53;8.73;;;3.47;;
76256;SDS011;65074;50.436;8.672;2022-12-16T06:45:36;13.57;;;4.57;;
76256;SDS011;65074;50.436;8.672;2022-12-16T06:48:20;7.90;;;3.65;;
76256;SDS011;65074;50.436;8.672;2022-12-16T06:51:04;5.45;;;3.00;;
76256;SDS011;65074;50.436;8.672;2022-12-16T06:53:48;9.70;;;3.85;;
76256;SDS011;65074;50.436;8.672;2022-12-16T06:59:26;8.25;;;3.80;;
76256;SDS011;65074;50.436;8.672;2022-12-16T07:02:10;6.90;;;2.88;;
76256;SDS011;65074;50.436;8.672;2022-12-16T07:04:54;6.10;;;3.08;;
76256;SDS011;65074;50.436;8.672;2022-12-16T07:07:38;7.82;;;3.75;;
76256;SDS011;65074;50.436;8.672;2022-12-16T07:10:22;8.00;;;4.00;;
76256;SDS011;65074;50.436;8.672;2022-12-16T07:13:06;5.47;;;2.97;;
76256;SDS011;65074;50.436;8.672;2022-12-16T07:15:50;5.38;;;2.97;;
76256;SDS011;65074;50.436;8.672;2022-12-16T07:18:33;13.10;;;4.32;;
76256;SDS011;65074;50.436;8.672;2022-12-16T07:21:17;6.75;;;2.25;;
76256;SDS011;65074;50.436;8.672;2022-12-16T07:24:01;9.60;;;3.92;;
76256;SDS011;65074;50.436;8.672;2022-12-16T07:27:02;7.45;;;3.53;;
76256;SDS011;65074;50.436;8.672;2022-12-16T07:29:46;10.52;;;3.20;;
76256;SDS011;65074;50.436;8.672;2022-12-16T07:32:29;14.27;;;6.55;;
76256;SDS011;65074;50.436;8.672;2022-12-16T07:35:13;11.95;;;4.68;;
76256;SDS011;65074;50.436;8.672;2022-12-16T07:37:57;9.40;;;4.57;;
76256;SDS011;65074;50.436;8.672;2022-12-16T07:40:41;15.77;;;4.80;;
76256;SDS011;65074;50.436;8.672;2022-12-16T07:43:25;12.00;;;6.47;;
76256;SDS011;65074;50.436;8.672;2022-12-16T07:46:09;12.27;;;5.78;;
76256;SDS011;65074;50.436;8.672;2022-12-16T07:48:52;10.15;;;4.03;;
76256;SDS011;65074;50.436;8.672;2022-12-16T07:51:36;10.38;;;5.40;;
76256;SDS011;65074;50.436;8.672;2022-12-16T07:54:20;11.32;;;5.65;;
76256;SDS011;65074;50.436;8.672;2022-12-16T07:57:04;11.20;;;5.13;;
76256;SDS011;65074;50.436;8.672;2022-12-16T07:59:47;18.08;;;6.75;;
76256;SDS011;65074;50.436;8.672;2022-12-16T08:02:37;7.63;;;3.40;;
76256;SDS011;65074;50.436;8.672;2022-12-16T08:05:21;20.15;;;5.55;;
76256;SDS011;65074;50.436;8.672;2022-12-16T08:08:04;10.65;;;5.53;;
76256;SDS011;65074;50.436;8.672;2022-12-16T08:11:08;10.18;;;5.32;;
76256;SDS011;65074;50.436;8.672;2022-12-16T08:13:52;11.85;;;3.67;;
76256;SDS011;65074;50.436;8.672;2022-12-16T08:16:35;14.57;;;7.00;;
76256;SDS011;65074;50.436;8.672;2022-12-16T08:19:19;14.38;;;6.30;;
76256;SDS011;65074;50.436;8.672;2022-12-16T08:22:03;14.10;;;6.68;;
76256;SDS011;65074;50.436;8.672;2022-12-16T08:24:46;11.32;;;3.97;;
76256;SDS011;65074;50.436;8.672;2022-12-16T08:27:30;10.07;;;6.10;;
76256;SDS011;65074;50.436;8.672;2022-12-16T08:30:14;18.02;;;7.75;;
76256;SDS011;65074;50.436;8.672;2022-12-16T08:32:58;15.25;;;6.95;;
76256;SDS011;65074;50.436;8.672;2022-12-16T08:35:41;10.18;;;4.38;;
76256;SDS011;65074;50.436;8.672;2022-12-16T08:38:25;14.68;;;6.38;;
76256;SDS011;65074;50.436;8.672;2022-12-16T08:41:09;9.40;;;4.13;;
76256;SDS011;65074;50.436;8.672;2022-12-16T08:43:53;15.63;;;5.78;;
76256;SDS011;65074;50.436;8.672;2022-12-16T08:46:37;5.80;;;3.22;;
76256;SDS011;65074;50.436;8.672;2022-12-16T08:49:20;11.55;;;5.43;;
76256;SDS011;65074;50.436;8.672;2022-12-16T08:52:04;7.47;;;3.17;;
76256;SDS011;65074;50.436;8.672;2022-12-16T08:54:48;10.02;;;4.90;;
76256;SDS011;65074;50.436;8.672;2022-12-16T08:57:32;8.32;;;5.32;;
76256;SDS011;65074;50.436;8.672;2022-12-16T09:00:16;11.90;;;5.28;;
76256;SDS011;65074;50.436;8.672;2022-12-16T09:03:00;12.18;;;5.63;;
76256;SDS011;65074;50.436;8.672;2022-12-16T09:05:44;17.33;;;8.35;;
76256;SDS011;65074;50.436;8.672;2022-12-16T09:08:28;12.52;;;6.10;;
76256;SDS011;65074;50.436;8.672;2022-12-16T09:11:12;8.10;;;4.78;;
76256;SDS011;65074;50.436;8.672;2022-12-16T09:13:57;19.15;;;7.40;;
76256;SDS011;65074;50.436;8.672;2022-12-16T09:16:41;14.13;;;5.53;;
76256;SDS011;65074;50.436;8.672;2022-12-16T09:19:25;17.08;;;7.13;;
76256;SDS011;65074;50.436;8.672;2022-12-16T09:22:09;14.77;;;7.15;;
76256;SDS011;65074;50.436;8.672;2022-12-16T09:24:53;7.82;;;4.13;;
76256;SDS011;65074;50.436;8.672;2022-12-16T09:27:37;7.60;;;5.03;;
76256;SDS011;65074;50.436;8.672;2022-12-16T09:30:21;11.15;;;6.30;;
76256;SDS011;65074;50.436;8.672;2022-12-16T09:33:05;13.07;;;4.97;;
76256;SDS011;65074;50.436;8.672;2022-12-16T09:35:48;15.38;;;7.15;;
76256;SDS011;65074;50.436;8.672;2022-12-16T09:38:32;12.88;;;6.13;;
76256;SDS011;65074;50.436;8.672;2022-12-16T09:41:19;17.75;;;8.55;;
76256;SDS011;65074;50.436;8.672;2022-12-16T09:47:22;12.88;;;5.53;;
76256;SDS011;65074;50.436;8.672;2022-12-16T09:50:15;12.50;;;6.25;;
76256;SDS011;65074;50.436;8.672;2022-12-16T09:53:04;7.57;;;3.83;;
76256;SDS011;65074;50.436;8.672;2022-12-16T09:55:52;18.58;;;8.40;;
76256;SDS011;65074;50.436;8.672;2022-12-16T09:58:45;14.45;;;5.93;;
76256;SDS011;65074;50.436;8.672;2022-12-16T10:01:35;14.48;;;7.10;;
76256;SDS011;65074;50.436;8.672;2022-12-16T10:04:20;11.85;;;5.20;;
76256;SDS011;65074;50.436;8.672;2022-12-16T10:07:05;12.20;;;5.22;;
76256;SDS011;65074;50.436;8.672;2022-12-16T10:13:12;8.85;;;4.07;;
76256;SDS011;65074;50.436;8.672;2022-12-16T10:16:21;9.23;;;4.38;;
76256;SDS011;65074;50.436;8.672;2022-12-16T10:22:38;9.90;;;6.47;;
76256;SDS011;65074;50.436;8.672;2022-12-16T10:25:31;24.02;;;8.07;;
76256;SDS011;65074;50.436;8.672;2022-12-16T10:31:12;13.52;;;7.97;;
76256;SDS011;65074;50.436;8.672;2022-12-16T10:33:58;24.23;;;11.88;;
76256;SDS011;65074;50.436;8.672;2022-12-16T10:36:46;14.15;;;8.00;;
76256;SDS011;65074;50.436;8.672;2022-12-16T10:39:33;14.45;;;7.85;;
76256;SDS011;65074;50.436;8.672;2022-12-16T10:42:30;14.63;;;6.13;;
76256;SDS011;65074;50.436;8.672;2022-12-16T10:45:23;18.90;;;8.45;;
76256;SDS011;65074;50.436;8.672;2022-12-16T10:48:12;19.42;;;10.30;;
76256;SDS011;65074;50.436;8.672;2022-12-16T10:50:59;19.13;;;11.15;;
76256;SDS011;65074;50.436;8.672;2022-12-16T10:53:48;19.70;;;9.65;;
76256;SDS011;65074;50.436;8.672;2022-12-16T10:59:23;15.38;;;6.65;;
76256;SDS011;65074;50.436;8.672;2022-12-16T11:02:19;11.02;;;5.38;;
76256;SDS011;65074;50.436;8.672;2022-12-16T11:11:17;9.73;;;5.30;;
76256;SDS011;65074;50.436;8.672;2022-12-16T11:14:09;13.98;;;7.35;;
76256;SDS011;65074;50.436;8.672;2022-12-16T11:20:05;10.05;;;4.85;;
76256;SDS011;65074;50.436;8.672;2022-12-16T11:26:19;8.88;;;4.88;;
76256;SDS011;65074;50.436;8.672;2022-12-16T11:29:03;11.90;;;6.13;;
76256;SDS011;65074;50.436;8.672;2022-12-16T11:31:49;9.18;;;5.72;;
76256;SDS011;65074;50.436;8.672;2022-12-16T11:34:37;9.48;;;5.07;;
76256;SDS011;65074;50.436;8.672;2022-12-16T11:37:22;8.90;;;4.88;;
76256;SDS011;65074;50.436;8.672;2022-12-16T11:40:11;5.75;;;3.55;;
76256;SDS011;65074;50.436;8.672;2022-12-16T11:42:59;7.20;;;4.03;;
76256;SDS011;65074;50.436;8.672;2022-12-16T11:45:45;7.00;;;4.00;;
76256;SDS011;65074;50.436;8.672;2022-12-16T11:48:41;7.85;;;4.28;;
76256;SDS011;65074;50.436;8.672;2022-12-16T11:51:28;6.70;;;4.25;;
76256;SDS011;65074;50.436;8.672;2022-12-16T11:54:25;9.55;;;5.00;;
76256;SDS011;65074;50.436;8.672;2022-12-16T11:57:16;12.73;;;4.57;;
76256;SDS011;65074;50.436;8.672;2022-12-16T12:00:04;6.20;;;4.65;;
76256;SDS011;65074;50.436;8.672;2022-12-16T12:02:57;10.13;;;5.78;;
76256;SDS011;65074;50.436;8.672;2022-12-16T12:08:51;6.72;;;3.33;;
76256;SDS011;65074;50.436;8.672;2022-12-16T12:11:56;12.85;;;5.63;;
76256;SDS011;65074;50.436;8.672;2022-12-16T12:15:07;5.68;;;3.63;;
76256;SDS011;65074;50.436;8.672;2022-12-16T12:18:01;5.05;;;3.75;;
76256;SDS011;65074;50.436;8.672;2022-12-16T12:21:07;12.80;;;4.03;;
76256;SDS011;65074;50.436;8.672;2022-12-16T12:26:50;9.55;;;5.88;;
76256;SDS011;65074;50.436;8.672;2022-12-16T12:30:01;10.32;;;6.15;;
76256;SDS011;65074;50.436;8.672;2022-12-16T12:32:53;7.15;;;3.67;;
76256;SDS011;65074;50.436;8.672;2022-12-16T12:41:40;8.15;;;4.47;;
76256;SDS011;65074;50.436;8.672;2022-12-16T12:47:31;8.40;;;5.50;;
76256;SDS011;65074;50.436;8.672;2022-12-16T12:50:23;7.28;;;4.35;;
76256;SDS011;65074;50.436;8.672;2022-12-16T12:53:21;5.32;;;3.08;;
76256;SDS011;65074;50.436;8.672;2022-12-16T12:56:27;6.18;;;4.78;;
76256;SDS011;65074;50.436;8.672;2022-12-16T13:00:13;6.30;;;4.03;;
76256;SDS011;65074;50.436;8.672;2022-12-16T13:02:43;6.07;;;3.42;;
76256;SDS011;65074;50.436;8.672;2022-12-16T13:05:33;12.00;;;5.97;;
76256;SDS011;65074;50.436;8.672;2022-12-16T13:08:40;9.50;;;4.65;;
76256;SDS011;65074;50.436;8.672;2022-12-16T13:11:37;10.75;;;5.55;;
76256;SDS011;65074;50.436;8.672;2022-12-16T13:17:14;11.07;;;4.75;;
76256;SDS011;65074;50.436;8.672;2022-12-16T13:20:32;6.18;;;3.72;;
76256;SDS011;65074;50.436;8.672;2022-12-16T13:23:21;9.65;;;4.40;;
76256;SDS011;65074;50.436;8.672;2022-12-16T13:26:17;11.43;;;5.75;;
76256;SDS011;65074;50.436;8.672;2022-12-16T13:29:17;7.85;;;3.45;;
76256;SDS011;65074;50.436;8.672;2022-12-16T13:32:20;10.80;;;5.60;;
76256;SDS011;65074;50.436;8.672;2022-12-16T13:37:53;6.28;;;3.35;;
76256;SDS011;65074;50.436;8.672;2022-12-16T13:41:01;7.30;;;3.22;;
76256;SDS011;65074;50.436;8.672;2022-12-16T13:43:48;8.88;;;4.82;;
76256;SDS011;65074;50.436;8.672;2022-12-16T13:46:49;10.30;;;4.80;;
76256;SDS011;65074;50.436;8.672;2022-12-16T13:58:25;5.93;;;3.65;;
76256;SDS011;65074;50.436;8.672;2022-12-16T14:01:21;7.43;;;3.88;;
76256;SDS011;65074;50.436;8.672;2022-12-16T14:04:19;9.02;;;4.85;;
76256;SDS011;65074;50.436;8.672;2022-12-16T14:07:09;7.90;;;4.22;;
76256;SDS011;65074;50.436;8.672;2022-12-16T14:09:53;8.10;;;4.90;;
76256;SDS011;65074;50.436;8.672;2022-12-16T14:12:48;9.55;;;4.75;;
76256;SDS011;65074;50.436;8.672;2022-12-16T14:15:48;8.05;;;4.65;;
76256;SDS011;65074;50.436;8.672;2022-12-16T14:18:47;4.97;;;2.88;;
76256;SDS011;65074;50.436;8.672;2022-12-16T14:21:48;9.32;;;4.95;;
76256;SDS011;65074;50.436;8.672;2022-12-16T14:24:37;4.07;;;2.88;;
76256;SDS011;65074;50.436;8.672;2022-12-16T14:27:22;7.07;;;3.78;;
76256;SDS011;65074;50.436;8.672;2022-12-16T14:30:14;6.18;;;3.08;;
76256;SDS011;65074;50.436;8.672;2022-12-16T14:33:13;8.45;;;4.40;;
76256;SDS011;65074;50.436;8.672;2022-12-16T14:35:58;9.90;;;5.53;;
76256;SDS011;65074;50.436;8.672;2022-12-16T14:38:52;9.20;;;5.07;;
76256;SDS011;65074;50.436;8.672;2022-12-16T14:41:38;12.68;;;6.03;;
76256;SDS011;65074;50.436;8.672;2022-12-16T14:44:23;11.13;;;4.03;;
76256;SDS011;65074;50.436;8.672;2022-12-16T14:47:15;10.05;;;5.40;;
76256;SDS011;65074;50.436;8.672;2022-12-16T14:50:01;11.30;;;5.55;;
76256;SDS011;65074;50.436;8.672;2022-12-16T14:52:45;7.75;;;3.22;;
76256;SDS011;65074;50.436;8.672;2022-12-16T14:55:30;12.52;;;5.18;;
76256;SDS011;65074;50.436;8.672;2022-12-16T14:58:20;10.25;;;4.70;;
76256;SDS011;65074;50.436;8.672;2022-12-16T15:04:12;9.63;;;3.90;;
76256;SDS011;65074;50.436;8.672;2022-12-16T15:07:03;13.32;;;4.18;;
76256;SDS011;65074;50.436;8.672;2022-12-16T15:09:54;9.30;;;4.32;;
76256;SDS011;65074;50.436;8.672;2022-12-16T15:12:40;10.80;;;4.70;;
76256;SDS011;65074;50.436;8.672;2022-12-16T15:15:31;13.98;;;5.95;;
76256;SDS011;65074;50.436;8.672;2022-12-16T15:18:38;10.80;;;6.03;;
76256;SDS011;65074;50.436;8.672;2022-12-16T15:21:25;9.88;;;4.60;;
76256;SDS011;65074;50.436;8.672;2022-12-16T15:24:12;9.35;;;4.93;;
76256;SDS011;65074;50.436;8.672;2022-12-16T15:27:12;6.13;;;3.33;;
76256;SDS011;65074;50.436;8.672;2022-12-16T15:29:58;9.23;;;5.25;;
76256;SDS011;65074;50.436;8.672;2022-12-16T15:32:42;13.48;;;4.95;;
76256;SDS011;65074;50.436;8.672;2022-12-16T15:35:35;6.43;;;3.63;;
76256;SDS011;65074;50.436;8.672;2022-12-16T15:38:26;9.60;;;4.68;;
76256;SDS011;65074;50.436;8.672;2022-12-16T15:44:16;8.93;;;4.25;;
76256;SDS011;65074;50.436;8.672;2022-12-16T15:47:15;12.55;;;5.47;;
76256;SDS011;65074;50.436;8.672;2022-12-16T15:50:24;10.52;;;4.28;;
76256;SDS011;65074;50.436;8.672;2022-12-16T15:53:29;10.30;;;4.40;;
76256;SDS011;65074;50.436;8.672;2022-12-16T16:02:09;12.07;;;4.97;;
76256;SDS011;65074;50.436;8.672;2022-12-16T16:05:11;12.75;;;4.97;;
76256;SDS011;65074;50.436;8.672;2022-12-16T16:07:58;10.55;;;4.82;;
76256;SDS011;65074;50.436;8.672;2022-12-16T16:10:42;9.40;;;5.43;;
76256;SDS011;65074;50.436;8.672;2022-12-16T16:13:27;8.40;;;4.07;;
76256;SDS011;65074;50.436;8.672;2022-12-16T16:16:11;10.38;;;4.40;;
76256;SDS011;65074;50.436;8.672;2022-12-16T16:19:19;9.60;;;4.38;;
76256;SDS011;65074;50.436;8.672;2022-12-16T16:22:11;12.52;;;4.93;;
76256;SDS011;65074;50.436;8.672;2022-12-16T16:24:57;12.25;;;5.05;;
76256;SDS011;65074;50.436;8.672;2022-12-16T16:27:41;17.52;;;5.60;;
76256;SDS011;65074;50.436;8.672;2022-12-16T16:30:25;15.93;;;6.43;;
76256;SDS011;65074;50.436;8.672;2022-12-16T16:33:09;16.33;;;5.55;;
76256;SDS011;65074;50.436;8.672;2022-12-16T16:35:53;13.02;;;5.07;;
76256;SDS011;65074;50.436;8.672;2022-12-16T16:38:37;10.98;;;4.57;;
76256;SDS011;65074;50.436;8.672;2022-12-16T16:41:21;12.35;;;5.32;;
76256;SDS011;65074;50.436;8.672;2022-12-16T16:44:04;14.20;;;4.65;;
76256;SDS011;65074;50.436;8.672;2022-12-16T16:46:48;8.68;;;4.03;;
76256;SDS011;65074;50.436;8.672;2022-12-16T16:49:38;9.85;;;3.35;;
76256;SDS011;65074;50.436;8.672;2022-12-16T16:52:24;7.93;;;4.15;;
76256;SDS011;65074;50.436;8.672;2022-12-16T16:55:16;7.78;;;3.80;;
76256;SDS011;65074;50.436;8.672;2022-12-16T16:58:04;8.90;;;3.83;;
76256;SDS011;65074;50.436;8.672;2022-12-16T17:00:50;8.40;;;3.53;;
76256;SDS011;65074;50.436;8.672;2022-12-16T17:03:34;11.85;;;4.03;;
76256;SDS011;65074;50.436;8.672;2022-12-16T17:06:17;7.10;;;3.25;;
76256;SDS011;65074;50.436;8.672;2022-12-16T17:09:01;8.20;;;3.95;;
76256;SDS011;65074;50.436;8.672;2022-12-16T17:11:48;15.20;;;5.65;;
76256;SDS011;65074;50.436;8.672;2022-12-16T17:14:33;15.07;;;6.63;;
76256;SDS011;65074;50.436;8.672;2022-12-16T17:17:16;4.85;;;3.10;;
76256;SDS011;65074;50.436;8.672;2022-12-16T17:20:00;7.95;;;3.80;;
76256;SDS011;65074;50.436;8.672;2022-12-16T17:22:44;14.40;;;5.93;;
76256;SDS011;65074;50.436;8.672;2022-12-16T17:25:28;10.55;;;4.97;;
76256;SDS011;65074;50.436;8.672;2022-12-16T17:28:12;14.85;;;6.57;;
76256;SDS011;65074;50.436;8.672;2022-12-16T17:30:56;12.30;;;4.93;;
76256;SDS011;65074;50.436;8.672;2022-12-16T17:33:39;14.32;;;6.35;;
76256;SDS011;65074;50.436;8.672;2022-12-16T17:36:23;9.00;;;3.72;;
76256;SDS011;65074;50.436;8.672;2022-12-16T17:39:07;12.32;;;4.88;;
76256;SDS011;65074;50.436;8.672;2022-12-16T17:41:53;9.60;;;5.53;;
76256;SDS011;65074;50.436;8.672;2022-12-16T17:44:37;12.45;;;5.10;;
76256;SDS011;65074;50.436;8.672;2022-12-16T17:47:21;11.57;;;5.25;;